Terminal Aerodrome Forecast
Issued by NWS Portland, OR

Home | Current Version | Previous Version | Text Only | Print | Product List | Glossary On
Versions: 1 2 3 4 5 6 7 8 9 10 11 12 13 14 15 16
000
FTUS46 KPQR 211724
TAFTTD
TAF
KTTD 211724Z 2118/2218 00000KT P6SM -SHRA FEW015 SCT030 OVC050
     FM212000 28003KT P6SM VCSH BKN035
     FM220000 00000KT P6SM BKN060
     FM221300 00000KT P6SM SCT007 OVC020=

USA.gov is the U.S. government's official web portal to all federal, state and local government web resources and services.